sensor_id;sensor_type;location;lat;lon;timestamp;P1;durP1;ratioP1;P2;durP2;ratioP2
19891;SDS011;10108;50.142;8.724;2022-09-13T00:02:06;12.95;;;9.55;;
19891;SDS011;10108;50.142;8.724;2022-09-13T00:04:32;15.07;;;9.65;;
19891;SDS011;10108;50.142;8.724;2022-09-13T00:06:58;15.90;;;9.45;;
19891;SDS011;10108;50.142;8.724;2022-09-13T00:09:24;14.70;;;9.48;;
19891;SDS011;10108;50.142;8.724;2022-09-13T00:11:50;14.90;;;9.13;;
19891;SDS011;10108;50.142;8.724;2022-09-13T00:14:16;13.10;;;9.65;;
19891;SDS011;10108;50.142;8.724;2022-09-13T00:16:42;12.32;;;9.45;;
19891;SDS011;10108;50.142;8.724;2022-09-13T00:19:08;12.95;;;9.63;;
19891;SDS011;10108;50.142;8.724;2022-09-13T00:21:34;14.77;;;9.45;;
19891;SDS011;10108;50.142;8.724;2022-09-13T00:24:01;16.33;;;9.57;;
19891;SDS011;10108;50.142;8.724;2022-09-13T00:26:27;14.40;;;9.98;;
19891;SDS011;10108;50.142;8.724;2022-09-13T00:28:54;14.30;;;9.50;;
19891;SDS011;10108;50.142;8.724;2022-09-13T00:31:22;13.45;;;9.45;;
19891;SDS011;10108;50.142;8.724;2022-09-13T00:33:49;14.70;;;9.95;;
19891;SDS011;10108;50.142;8.724;2022-09-13T00:36:15;16.48;;;9.90;;
19891;SDS011;10108;50.142;8.724;2022-09-13T00:38:42;13.93;;;9.63;;
19891;SDS011;10108;50.142;8.724;2022-09-13T00:41:10;12.02;;;8.93;;
19891;SDS011;10108;50.142;8.724;2022-09-13T00:43:43;15.50;;;9.63;;
19891;SDS011;10108;50.142;8.724;2022-09-13T00:46:15;15.88;;;9.75;;
19891;SDS011;10108;50.142;8.724;2022-09-13T00:49:02;12.25;;;9.02;;
19891;SDS011;10108;50.142;8.724;2022-09-13T00:51:36;12.63;;;9.20;;
19891;SDS011;10108;50.142;8.724;2022-09-13T00:54:04;12.60;;;9.60;;
19891;SDS011;10108;50.142;8.724;2022-09-13T00:56:32;12.18;;;9.30;;
19891;SDS011;10108;50.142;8.724;2022-09-13T00:59:06;14.68;;;9.82;;
19891;SDS011;10108;50.142;8.724;2022-09-13T01:01:48;13.35;;;9.70;;
19891;SDS011;10108;50.142;8.724;2022-09-13T01:04:19;13.68;;;9.55;;
19891;SDS011;10108;50.142;8.724;2022-09-13T01:06:47;13.25;;;9.93;;
19891;SDS011;10108;50.142;8.724;2022-09-13T01:09:15;14.13;;;9.68;;
19891;SDS011;10108;50.142;8.724;2022-09-13T01:11:44;15.77;;;9.93;;
19891;SDS011;10108;50.142;8.724;2022-09-13T01:14:17;14.13;;;10.00;;
19891;SDS011;10108;50.142;8.724;2022-09-13T01:16:45;13.95;;;10.07;;
19891;SDS011;10108;50.142;8.724;2022-09-13T01:19:11;15.13;;;9.95;;
19891;SDS011;10108;50.142;8.724;2022-09-13T01:35:24;14.45;;;10.52;;
19891;SDS011;10108;50.142;8.724;2022-09-13T01:47:37;14.35;;;11.00;;
19891;SDS011;10108;50.142;8.724;2022-09-13T01:49:41;14.20;;;10.30;;
19891;SDS011;10108;50.142;8.724;2022-09-13T01:52:52;14.10;;;10.40;;
19891;SDS011;10108;50.142;8.724;2022-09-13T01:55:32;15.20;;;10.38;;
19891;SDS011;10108;50.142;8.724;2022-09-13T01:58:20;15.57;;;11.13;;
19891;SDS011;10108;50.142;8.724;2022-09-13T02:04:04;13.68;;;10.48;;
19891;SDS011;10108;50.142;8.724;2022-09-13T02:06:55;14.07;;;10.75;;
19891;SDS011;10108;50.142;8.724;2022-09-13T02:09:43;13.75;;;10.80;;
19891;SDS011;10108;50.142;8.724;2022-09-13T02:12:15;14.85;;;11.05;;
19891;SDS011;10108;50.142;8.724;2022-09-13T02:14:48;14.65;;;10.13;;
19891;SDS011;10108;50.142;8.724;2022-09-13T02:17:27;16.33;;;10.55;;
19891;SDS011;10108;50.142;8.724;2022-09-13T02:20:42;15.25;;;10.13;;
19891;SDS011;10108;50.142;8.724;2022-09-13T02:23:01;16.15;;;11.23;;
19891;SDS011;10108;50.142;8.724;2022-09-13T02:25:30;15.98;;;10.82;;
19891;SDS011;10108;50.142;8.724;2022-09-13T02:28:00;14.90;;;10.55;;
19891;SDS011;10108;50.142;8.724;2022-09-13T02:30:32;15.27;;;10.93;;
19891;SDS011;10108;50.142;8.724;2022-09-13T02:33:15;14.35;;;10.88;;
19891;SDS011;10108;50.142;8.724;2022-09-13T02:36:01;16.17;;;10.82;;
19891;SDS011;10108;50.142;8.724;2022-09-13T02:38:52;15.60;;;10.57;;
19891;SDS011;10108;50.142;8.724;2022-09-13T02:44:08;17.33;;;11.23;;
19891;SDS011;10108;50.142;8.724;2022-09-13T02:46:53;15.10;;;11.23;;
19891;SDS011;10108;50.142;8.724;2022-09-13T02:49:42;14.63;;;10.73;;
19891;SDS011;10108;50.142;8.724;2022-09-13T02:55:15;14.75;;;10.82;;
19891;SDS011;10108;50.142;8.724;2022-09-13T02:57:49;14.80;;;11.10;;
19891;SDS011;10108;50.142;8.724;2022-09-13T03:00:45;13.95;;;10.55;;
19891;SDS011;10108;50.142;8.724;2022-09-13T03:03:13;15.25;;;11.13;;
19891;SDS011;10108;50.142;8.724;2022-09-13T03:05:41;13.55;;;10.50;;
19891;SDS011;10108;50.142;8.724;2022-09-13T03:08:08;16.45;;;10.88;;
19891;SDS011;10108;50.142;8.724;2022-09-13T03:10:45;15.10;;;11.82;;
19891;SDS011;10108;50.142;8.724;2022-09-13T03:27:50;16.42;;;11.15;;
19891;SDS011;10108;50.142;8.724;2022-09-13T03:30:17;15.60;;;11.55;;
19891;SDS011;10108;50.142;8.724;2022-09-13T03:40:42;17.73;;;11.57;;
19891;SDS011;10108;50.142;8.724;2022-09-13T03:43:18;14.63;;;11.40;;
19891;SDS011;10108;50.142;8.724;2022-09-13T03:46:05;16.05;;;10.90;;
19891;SDS011;10108;50.142;8.724;2022-09-13T03:48:36;15.32;;;11.55;;
19891;SDS011;10108;50.142;8.724;2022-09-13T03:51:05;18.25;;;12.55;;
19891;SDS011;10108;50.142;8.724;2022-09-13T03:53:32;18.13;;;11.85;;
19891;SDS011;10108;50.142;8.724;2022-09-13T03:56:15;19.33;;;12.05;;
19891;SDS011;10108;50.142;8.724;2022-09-13T03:58:42;17.60;;;12.38;;
19891;SDS011;10108;50.142;8.724;2022-09-13T04:01:09;16.75;;;12.05;;
19891;SDS011;10108;50.142;8.724;2022-09-13T04:03:35;18.60;;;12.15;;
19891;SDS011;10108;50.142;8.724;2022-09-13T04:06:02;17.10;;;12.07;;
19891;SDS011;10108;50.142;8.724;2022-09-13T04:08:29;14.85;;;11.90;;
19891;SDS011;10108;50.142;8.724;2022-09-13T04:10:56;17.45;;;12.48;;
19891;SDS011;10108;50.142;8.724;2022-09-13T04:13:23;17.45;;;11.98;;
19891;SDS011;10108;50.142;8.724;2022-09-13T04:15:49;15.95;;;11.88;;
19891;SDS011;10108;50.142;8.724;2022-09-13T04:18:15;16.77;;;11.68;;
19891;SDS011;10108;50.142;8.724;2022-09-13T04:20:42;16.27;;;12.20;;
19891;SDS011;10108;50.142;8.724;2022-09-13T04:23:08;16.50;;;12.48;;
19891;SDS011;10108;50.142;8.724;2022-09-13T04:25:37;16.27;;;12.45;;
19891;SDS011;10108;50.142;8.724;2022-09-13T04:28:05;17.02;;;12.48;;
19891;SDS011;10108;50.142;8.724;2022-09-13T04:30:31;17.98;;;13.02;;
19891;SDS011;10108;50.142;8.724;2022-09-13T04:32:57;20.48;;;13.05;;
19891;SDS011;10108;50.142;8.724;2022-09-13T04:35:24;18.48;;;13.00;;
19891;SDS011;10108;50.142;8.724;2022-09-13T04:37:53;20.05;;;13.02;;
19891;SDS011;10108;50.142;8.724;2022-09-13T04:40:21;21.05;;;13.55;;
19891;SDS011;10108;50.142;8.724;2022-09-13T04:42:48;19.13;;;13.07;;
19891;SDS011;10108;50.142;8.724;2022-09-13T04:45:14;18.70;;;13.93;;
19891;SDS011;10108;50.142;8.724;2022-09-13T04:47:40;15.00;;;12.43;;
19891;SDS011;10108;50.142;8.724;2022-09-13T04:50:06;16.25;;;12.13;;
19891;SDS011;10108;50.142;8.724;2022-09-13T04:52:34;15.85;;;11.43;;
19891;SDS011;10108;50.142;8.724;2022-09-13T04:55:01;15.82;;;11.82;;
19891;SDS011;10108;50.142;8.724;2022-09-13T04:57:27;17.08;;;11.60;;
19891;SDS011;10108;50.142;8.724;2022-09-13T04:59:54;15.10;;;11.05;;
19891;SDS011;10108;50.142;8.724;2022-09-13T05:02:20;16.88;;;12.07;;
19891;SDS011;10108;50.142;8.724;2022-09-13T05:04:46;17.63;;;12.18;;
19891;SDS011;10108;50.142;8.724;2022-09-13T05:07:12;18.88;;;13.15;;
19891;SDS011;10108;50.142;8.724;2022-09-13T05:09:38;16.35;;;12.18;;
19891;SDS011;10108;50.142;8.724;2022-09-13T05:12:04;17.23;;;12.55;;
19891;SDS011;10108;50.142;8.724;2022-09-13T05:14:30;16.65;;;12.80;;
19891;SDS011;10108;50.142;8.724;2022-09-13T05:16:57;19.85;;;12.75;;
19891;SDS011;10108;50.142;8.724;2022-09-13T05:19:23;17.42;;;12.60;;
19891;SDS011;10108;50.142;8.724;2022-09-13T05:21:49;17.90;;;11.98;;
19891;SDS011;10108;50.142;8.724;2022-09-13T05:24:15;15.65;;;11.75;;
19891;SDS011;10108;50.142;8.724;2022-09-13T05:26:41;16.40;;;11.60;;
19891;SDS011;10108;50.142;8.724;2022-09-13T05:29:07;17.17;;;12.10;;
19891;SDS011;10108;50.142;8.724;2022-09-13T05:31:35;16.30;;;12.30;;
19891;SDS011;10108;50.142;8.724;2022-09-13T05:34:04;15.75;;;11.85;;
19891;SDS011;10108;50.142;8.724;2022-09-13T05:36:35;20.10;;;12.23;;
19891;SDS011;10108;50.142;8.724;2022-09-13T05:39:02;15.55;;;11.48;;
19891;SDS011;10108;50.142;8.724;2022-09-13T05:41:29;17.55;;;11.30;;
19891;SDS011;10108;50.142;8.724;2022-09-13T05:43:56;17.60;;;12.60;;
19891;SDS011;10108;50.142;8.724;2022-09-13T05:46:22;16.88;;;12.27;;
19891;SDS011;10108;50.142;8.724;2022-09-13T05:48:48;18.10;;;12.43;;
19891;SDS011;10108;50.142;8.724;2022-09-13T05:51:15;18.52;;;12.23;;
19891;SDS011;10108;50.142;8.724;2022-09-13T05:53:44;19.10;;;12.82;;
19891;SDS011;10108;50.142;8.724;2022-09-13T05:56:13;16.85;;;12.73;;
19891;SDS011;10108;50.142;8.724;2022-09-13T05:58:41;17.30;;;11.65;;
19891;SDS011;10108;50.142;8.724;2022-09-13T06:01:10;18.20;;;12.15;;
19891;SDS011;10108;50.142;8.724;2022-09-13T06:03:37;17.67;;;12.77;;
19891;SDS011;10108;50.142;8.724;2022-09-13T06:06:03;18.00;;;13.45;;
19891;SDS011;10108;50.142;8.724;2022-09-13T06:08:31;20.60;;;13.23;;
19891;SDS011;10108;50.142;8.724;2022-09-13T06:13:25;20.00;;;13.68;;
19891;SDS011;10108;50.142;8.724;2022-09-13T06:15:53;22.45;;;13.05;;
19891;SDS011;10108;50.142;8.724;2022-09-13T06:18:20;26.52;;;14.30;;
19891;SDS011;10108;50.142;8.724;2022-09-13T06:20:47;19.38;;;13.45;;
19891;SDS011;10108;50.142;8.724;2022-09-13T06:23:13;17.23;;;13.13;;
19891;SDS011;10108;50.142;8.724;2022-09-13T06:25:40;21.45;;;13.88;;
19891;SDS011;10108;50.142;8.724;2022-09-13T06:28:06;19.00;;;15.30;;
19891;SDS011;10108;50.142;8.724;2022-09-13T06:30:33;28.58;;;15.93;;
19891;SDS011;10108;50.142;8.724;2022-09-13T06:32:59;24.65;;;15.13;;
19891;SDS011;10108;50.142;8.724;2022-09-13T06:35:25;25.85;;;15.13;;
19891;SDS011;10108;50.142;8.724;2022-09-13T06:37:54;24.35;;;16.05;;
19891;SDS011;10108;50.142;8.724;2022-09-13T06:40:24;23.92;;;16.55;;
19891;SDS011;10108;50.142;8.724;2022-09-13T06:42:50;23.15;;;15.52;;
19891;SDS011;10108;50.142;8.724;2022-09-13T06:45:16;24.45;;;15.05;;
19891;SDS011;10108;50.142;8.724;2022-09-13T06:47:43;25.02;;;15.18;;
19891;SDS011;10108;50.142;8.724;2022-09-13T06:50:09;23.70;;;15.70;;
19891;SDS011;10108;50.142;8.724;2022-09-13T06:52:35;19.58;;;14.90;;
19891;SDS011;10108;50.142;8.724;2022-09-13T06:55:02;22.63;;;14.90;;
19891;SDS011;10108;50.142;8.724;2022-09-13T06:57:31;26.17;;;14.73;;
19891;SDS011;10108;50.142;8.724;2022-09-13T06:59:57;26.83;;;14.63;;
19891;SDS011;10108;50.142;8.724;2022-09-13T07:02:23;23.17;;;13.25;;
19891;SDS011;10108;50.142;8.724;2022-09-13T07:04:50;26.95;;;14.32;;
19891;SDS011;10108;50.142;8.724;2022-09-13T07:07:16;25.77;;;14.73;;
19891;SDS011;10108;50.142;8.724;2022-09-13T07:09:43;22.98;;;13.73;;
19891;SDS011;10108;50.142;8.724;2022-09-13T07:12:09;22.42;;;13.85;;
19891;SDS011;10108;50.142;8.724;2022-09-13T07:14:35;27.30;;;14.32;;
19891;SDS011;10108;50.142;8.724;2022-09-13T07:17:02;22.67;;;14.18;;
19891;SDS011;10108;50.142;8.724;2022-09-13T07:19:29;22.17;;;13.77;;
19891;SDS011;10108;50.142;8.724;2022-09-13T07:21:56;24.15;;;13.50;;
19891;SDS011;10108;50.142;8.724;2022-09-13T07:24:22;22.00;;;13.57;;
19891;SDS011;10108;50.142;8.724;2022-09-13T07:26:49;24.85;;;13.63;;
19891;SDS011;10108;50.142;8.724;2022-09-13T07:29:17;21.10;;;14.77;;
19891;SDS011;10108;50.142;8.724;2022-09-13T07:31:47;21.90;;;14.18;;
19891;SDS011;10108;50.142;8.724;2022-09-13T07:34:16;21.23;;;14.02;;
19891;SDS011;10108;50.142;8.724;2022-09-13T07:36:45;20.20;;;13.60;;
19891;SDS011;10108;50.142;8.724;2022-09-13T07:39:12;26.98;;;14.20;;
19891;SDS011;10108;50.142;8.724;2022-09-13T07:41:40;23.58;;;13.90;;
19891;SDS011;10108;50.142;8.724;2022-09-13T07:44:06;22.42;;;13.15;;
19891;SDS011;10108;50.142;8.724;2022-09-13T07:46:34;28.60;;;14.18;;
19891;SDS011;10108;50.142;8.724;2022-09-13T07:49:04;21.13;;;13.85;;
19891;SDS011;10108;50.142;8.724;2022-09-13T07:51:31;22.98;;;13.90;;
19891;SDS011;10108;50.142;8.724;2022-09-13T07:53:59;21.38;;;14.05;;
19891;SDS011;10108;50.142;8.724;2022-09-13T07:56:30;22.33;;;14.18;;
19891;SDS011;10108;50.142;8.724;2022-09-13T07:58:59;19.75;;;13.57;;
19891;SDS011;10108;50.142;8.724;2022-09-13T08:01:27;25.70;;;14.35;;
19891;SDS011;10108;50.142;8.724;2022-09-13T08:03:58;27.45;;;14.25;;
19891;SDS011;10108;50.142;8.724;2022-09-13T08:06:26;23.70;;;13.45;;
19891;SDS011;10108;50.142;8.724;2022-09-13T08:08:54;22.52;;;14.23;;
19891;SDS011;10108;50.142;8.724;2022-09-13T08:11:26;28.33;;;14.60;;
19891;SDS011;10108;50.142;8.724;2022-09-13T08:13:54;24.35;;;15.05;;
19891;SDS011;10108;50.142;8.724;2022-09-13T08:16:21;29.10;;;15.93;;
19891;SDS011;10108;50.142;8.724;2022-09-13T08:18:52;27.92;;;16.38;;
19891;SDS011;10108;50.142;8.724;2022-09-13T08:21:20;24.42;;;15.38;;
19891;SDS011;10108;50.142;8.724;2022-09-13T08:23:47;25.33;;;15.52;;
19891;SDS011;10108;50.142;8.724;2022-09-13T08:26:14;22.35;;;13.73;;
19891;SDS011;10108;50.142;8.724;2022-09-13T08:28:41;24.23;;;14.32;;
19891;SDS011;10108;50.142;8.724;2022-09-13T08:31:12;22.73;;;14.07;;
19891;SDS011;10108;50.142;8.724;2022-09-13T08:33:46;23.73;;;13.52;;
19891;SDS011;10108;50.142;8.724;2022-09-13T08:36:15;22.27;;;13.35;;
19891;SDS011;10108;50.142;8.724;2022-09-13T08:38:46;21.33;;;13.65;;
19891;SDS011;10108;50.142;8.724;2022-09-13T08:44:44;19.85;;;12.57;;
19891;SDS011;10108;50.142;8.724;2022-09-13T08:47:29;24.65;;;13.52;;
19891;SDS011;10108;50.142;8.724;2022-09-13T08:50:25;23.33;;;13.77;;
19891;SDS011;10108;50.142;8.724;2022-09-13T08:53:38;18.90;;;11.50;;
19891;SDS011;10108;50.142;8.724;2022-09-13T08:56:14;19.50;;;12.35;;
19891;SDS011;10108;50.142;8.724;2022-09-13T08:58:54;24.02;;;12.65;;
19891;SDS011;10108;50.142;8.724;2022-09-13T09:01:49;14.80;;;10.65;;
19891;SDS011;10108;50.142;8.724;2022-09-13T09:07:03;18.23;;;10.85;;
19891;SDS011;10108;50.142;8.724;2022-09-13T09:12:42;15.43;;;10.30;;
19891;SDS011;10108;50.142;8.724;2022-09-13T09:17:54;21.20;;;11.98;;
19891;SDS011;10108;50.142;8.724;2022-09-13T09:20:26;16.40;;;11.02;;
19891;SDS011;10108;50.142;8.724;2022-09-13T09:23:04;20.33;;;11.45;;
19891;SDS011;10108;50.142;8.724;2022-09-13T09:25:37;18.20;;;13.70;;
19891;SDS011;10108;50.142;8.724;2022-09-13T09:28:11;21.73;;;13.73;;
19891;SDS011;10108;50.142;8.724;2022-09-13T09:33:47;20.30;;;15.00;;
19891;SDS011;10108;50.142;8.724;2022-09-13T09:39:03;19.30;;;14.38;;
19891;SDS011;10108;50.142;8.724;2022-09-13T09:41:30;19.52;;;15.27;;
19891;SDS011;10108;50.142;8.724;2022-09-13T09:44:09;23.00;;;15.73;;
19891;SDS011;10108;50.142;8.724;2022-09-13T09:46:39;23.55;;;17.48;;
19891;SDS011;10108;50.142;8.724;2022-09-13T09:49:20;23.98;;;17.95;;
19891;SDS011;10108;50.142;8.724;2022-09-13T09:52:16;23.73;;;17.10;;
19891;SDS011;10108;50.142;8.724;2022-09-13T09:54:47;24.63;;;17.95;;
19891;SDS011;10108;50.142;8.724;2022-09-13T09:57:14;18.80;;;13.90;;
19891;SDS011;10108;50.142;8.724;2022-09-13T09:59:43;19.35;;;13.73;;
19891;SDS011;10108;50.142;8.724;2022-09-13T10:02:12;20.55;;;14.30;;
19891;SDS011;10108;50.142;8.724;2022-09-13T10:05:18;23.13;;;14.80;;
19891;SDS011;10108;50.142;8.724;2022-09-13T10:07:37;22.65;;;15.43;;
19891;SDS011;10108;50.142;8.724;2022-09-13T10:10:18;22.52;;;15.13;;
19891;SDS011;10108;50.142;8.724;2022-09-13T10:12:50;24.40;;;14.77;;
19891;SDS011;10108;50.142;8.724;2022-09-13T10:15:21;23.58;;;16.25;;
19891;SDS011;10108;50.142;8.724;2022-09-13T10:20:40;22.75;;;16.30;;
19891;SDS011;10108;50.142;8.724;2022-09-13T10:23:08;23.73;;;17.02;;
19891;SDS011;10108;50.142;8.724;2022-09-13T10:25:35;23.55;;;15.95;;
19891;SDS011;10108;50.142;8.724;2022-09-13T10:28:03;22.52;;;16.38;;
19891;SDS011;10108;50.142;8.724;2022-09-13T10:30:36;23.92;;;16.00;;
19891;SDS011;10108;50.142;8.724;2022-09-13T10:33:24;25.30;;;16.15;;
19891;SDS011;10108;50.142;8.724;2022-09-13T10:35:56;22.05;;;16.20;;
19891;SDS011;10108;50.142;8.724;2022-09-13T10:38:37;23.80;;;16.77;;
19891;SDS011;10108;50.142;8.724;2022-09-13T10:41:10;22.08;;;15.82;;
19891;SDS011;10108;50.142;8.724;2022-09-13T10:43:54;28.10;;;15.95;;
19891;SDS011;10108;50.142;8.724;2022-09-13T10:46:22;24.20;;;16.25;;
19891;SDS011;10108;50.142;8.724;2022-09-13T10:48:48;24.98;;;16.25;;
19891;SDS011;10108;50.142;8.724;2022-09-13T10:53:50;22.48;;;16.27;;
19891;SDS011;10108;50.142;8.724;2022-09-13T10:56:32;23.08;;;16.83;;
19891;SDS011;10108;50.142;8.724;2022-09-13T10:59:20;25.15;;;16.77;;
19891;SDS011;10108;50.142;8.724;2022-09-13T11:02:05;22.38;;;15.48;;
19891;SDS011;10108;50.142;8.724;2022-09-13T11:07:23;25.15;;;15.80;;
19891;SDS011;10108;50.142;8.724;2022-09-13T11:10:18;22.60;;;14.63;;
19891;SDS011;10108;50.142;8.724;2022-09-13T11:13:06;24.95;;;16.38;;
19891;SDS011;10108;50.142;8.724;2022-09-13T11:15:48;22.88;;;15.85;;
19891;SDS011;10108;50.142;8.724;2022-09-13T11:24:05;23.30;;;15.18;;
19891;SDS011;10108;50.142;8.724;2022-09-13T11:27:03;22.48;;;15.60;;
19891;SDS011;10108;50.142;8.724;2022-09-13T11:30:09;24.25;;;15.82;;
19891;SDS011;10108;50.142;8.724;2022-09-13T11:41:12;16.48;;;11.23;;
19891;SDS011;10108;50.142;8.724;2022-09-13T11:44:27;13.75;;;10.63;;
19891;SDS011;10108;50.142;8.724;2022-09-13T11:47:09;20.80;;;13.13;;
19891;SDS011;10108;50.142;8.724;2022-09-13T11:49:53;17.70;;;12.27;;
19891;SDS011;10108;50.142;8.724;2022-09-13T11:52:46;19.95;;;11.55;;
19891;SDS011;10108;50.142;8.724;2022-09-13T11:55:32;19.75;;;13.73;;
19891;SDS011;10108;50.142;8.724;2022-09-13T11:58:09;14.60;;;10.63;;
19891;SDS011;10108;50.142;8.724;2022-09-13T12:00:56;15.05;;;10.75;;
19891;SDS011;10108;50.142;8.724;2022-09-13T12:06:47;15.35;;;10.27;;
19891;SDS011;10108;50.142;8.724;2022-09-13T12:09:19;21.33;;;11.57;;
19891;SDS011;10108;50.142;8.724;2022-09-13T12:11:51;12.63;;;9.88;;
19891;SDS011;10108;50.142;8.724;2022-09-13T12:14:51;13.13;;;9.73;;
19891;SDS011;10108;50.142;8.724;2022-09-13T12:20:13;19.15;;;10.88;;
19891;SDS011;10108;50.142;8.724;2022-09-13T12:22:51;15.07;;;10.32;;
19891;SDS011;10108;50.142;8.724;2022-09-13T12:25:26;18.75;;;13.10;;
19891;SDS011;10108;50.142;8.724;2022-09-13T12:28:05;14.15;;;10.40;;
19891;SDS011;10108;50.142;8.724;2022-09-13T12:30:49;14.20;;;10.27;;
19891;SDS011;10108;50.142;8.724;2022-09-13T12:33:21;14.32;;;9.77;;
19891;SDS011;10108;50.142;8.724;2022-09-13T12:44:46;15.18;;;12.07;;
19891;SDS011;10108;50.142;8.724;2022-09-13T12:50:28;15.23;;;10.50;;
19891;SDS011;10108;50.142;8.724;2022-09-13T12:55:46;14.45;;;9.40;;
19891;SDS011;10108;50.142;8.724;2022-09-13T12:58:30;14.27;;;10.80;;
19891;SDS011;10108;50.142;8.724;2022-09-13T13:03:47;15.32;;;10.95;;
19891;SDS011;10108;50.142;8.724;2022-09-13T13:06:23;13.82;;;9.48;;
19891;SDS011;10108;50.142;8.724;2022-09-13T13:08:54;13.88;;;10.27;;
19891;SDS011;10108;50.142;8.724;2022-09-13T13:11:23;13.20;;;9.93;;
19891;SDS011;10108;50.142;8.724;2022-09-13T13:13:53;17.45;;;10.57;;
19891;SDS011;10108;50.142;8.724;2022-09-13T13:16:22;17.05;;;9.40;;
19891;SDS011;10108;50.142;8.724;2022-09-13T13:19:04;18.15;;;9.38;;
19891;SDS011;10108;50.142;8.724;2022-09-13T13:21:49;14.23;;;9.90;;
19891;SDS011;10108;50.142;8.724;2022-09-13T13:29:25;19.17;;;10.60;;
19891;SDS011;10108;50.142;8.724;2022-09-13T13:34:39;13.48;;;9.57;;
19891;SDS011;10108;50.142;8.724;2022-09-13T13:39:40;15.57;;;9.70;;
19891;SDS011;10108;50.142;8.724;2022-09-13T13:42:10;13.40;;;8.68;;
19891;SDS011;10108;50.142;8.724;2022-09-13T14:16:42;18.92;;;10.73;;
19891;SDS011;10108;50.142;8.724;2022-09-13T14:19:31;13.95;;;9.57;;
19891;SDS011;10108;50.142;8.724;2022-09-13T14:24:57;15.88;;;11.48;;
19891;SDS011;10108;50.142;8.724;2022-09-13T14:27:37;17.55;;;10.40;;
19891;SDS011;10108;50.142;8.724;2022-09-13T14:32:48;15.88;;;10.15;;
19891;SDS011;10108;50.142;8.724;2022-09-13T14:35:23;12.88;;;10.60;;
19891;SDS011;10108;50.142;8.724;2022-09-13T14:37:52;16.67;;;9.73;;
19891;SDS011;10108;50.142;8.724;2022-09-13T14:40:22;14.85;;;11.07;;
19891;SDS011;10108;50.142;8.724;2022-09-13T14:42:53;15.93;;;12.13;;
19891;SDS011;10108;50.142;8.724;2022-09-13T14:50:26;23.38;;;16.27;;
19891;SDS011;10108;50.142;8.724;2022-09-13T14:53:00;20.77;;;17.20;;
19891;SDS011;10108;50.142;8.724;2022-09-13T14:55:32;21.27;;;18.40;;
19891;SDS011;10108;50.142;8.724;2022-09-13T14:58:05;22.83;;;18.20;;
19891;SDS011;10108;50.142;8.724;2022-09-13T15:00:45;24.48;;;20.27;;
19891;SDS011;10108;50.142;8.724;2022-09-13T15:03:15;27.05;;;20.02;;
19891;SDS011;10108;50.142;8.724;2022-09-13T15:05:49;27.92;;;19.80;;
19891;SDS011;10108;50.142;8.724;2022-09-13T15:11:03;25.80;;;20.30;;
19891;SDS011;10108;50.142;8.724;2022-09-13T15:13:31;27.38;;;20.80;;
19891;SDS011;10108;50.142;8.724;2022-09-13T15:15:58;22.88;;;20.02;;
19891;SDS011;10108;50.142;8.724;2022-09-13T15:18:31;24.90;;;20.20;;
19891;SDS011;10108;50.142;8.724;2022-09-13T15:23:33;27.00;;;21.23;;
19891;SDS011;10108;50.142;8.724;2022-09-13T15:26:07;26.48;;;20.30;;
19891;SDS011;10108;50.142;8.724;2022-09-13T15:28:48;27.27;;;20.20;;
19891;SDS011;10108;50.142;8.724;2022-09-13T15:31:24;25.67;;;19.70;;
19891;SDS011;10108;50.142;8.724;2022-09-13T15:34:11;24.65;;;19.17;;
19891;SDS011;10108;50.142;8.724;2022-09-13T15:36:47;23.45;;;19.55;;
19891;SDS011;10108;50.142;8.724;2022-09-13T15:39:25;27.40;;;19.92;;
19891;SDS011;10108;50.142;8.724;2022-09-13T15:44:19;28.77;;;20.95;;
19891;SDS011;10108;50.142;8.724;2022-09-13T15:46:46;25.23;;;20.40;;
19891;SDS011;10108;50.142;8.724;2022-09-13T15:49:14;29.67;;;20.90;;
19891;SDS011;10108;50.142;8.724;2022-09-13T15:51:43;29.23;;;20.20;;
19891;SDS011;10108;50.142;8.724;2022-09-13T15:54:10;22.70;;;18.08;;
19891;SDS011;10108;50.142;8.724;2022-09-13T15:56:39;21.58;;;17.27;;
19891;SDS011;10108;50.142;8.724;2022-09-13T15:59:17;25.08;;;17.95;;
19891;SDS011;10108;50.142;8.724;2022-09-13T16:01:49;21.02;;;16.52;;
19891;SDS011;10108;50.142;8.724;2022-09-13T16:04:16;23.05;;;16.88;;
19891;SDS011;10108;50.142;8.724;2022-09-13T16:06:42;22.20;;;17.40;;
19891;SDS011;10108;50.142;8.724;2022-09-13T16:09:19;22.75;;;17.75;;
19891;SDS011;10108;50.142;8.724;2022-09-13T16:11:47;24.80;;;18.27;;
19891;SDS011;10108;50.142;8.724;2022-09-13T16:14:14;24.27;;;18.70;;
19891;SDS011;10108;50.142;8.724;2022-09-13T16:16:41;24.48;;;18.13;;
19891;SDS011;10108;50.142;8.724;2022-09-13T16:19:14;24.13;;;18.45;;
19891;SDS011;10108;50.142;8.724;2022-09-13T16:21:42;26.70;;;17.50;;
19891;SDS011;10108;50.142;8.724;2022-09-13T16:24:08;27.05;;;17.55;;
19891;SDS011;10108;50.142;8.724;2022-09-13T16:26:34;26.33;;;18.58;;
19891;SDS011;10108;50.142;8.724;2022-09-13T16:29:00;26.33;;;17.98;;
19891;SDS011;10108;50.142;8.724;2022-09-13T16:31:26;24.27;;;18.27;;
19891;SDS011;10108;50.142;8.724;2022-09-13T16:33:52;23.77;;;18.08;;
19891;SDS011;10108;50.142;8.724;2022-09-13T16:36:19;27.98;;;18.10;;
19891;SDS011;10108;50.142;8.724;2022-09-13T16:38:45;24.20;;;18.08;;
19891;SDS011;10108;50.142;8.724;2022-09-13T16:41:11;25.88;;;17.50;;
19891;SDS011;10108;50.142;8.724;2022-09-13T16:43:37;26.85;;;17.88;;
19891;SDS011;10108;50.142;8.724;2022-09-13T16:46:06;23.35;;;16.48;;
19891;SDS011;10108;50.142;8.724;2022-09-13T16:48:33;24.38;;;16.20;;
19891;SDS011;10108;50.142;8.724;2022-09-13T16:51:00;22.77;;;16.38;;
19891;SDS011;10108;50.142;8.724;2022-09-13T16:53:30;28.42;;;17.88;;
19891;SDS011;10108;50.142;8.724;2022-09-13T16:56:07;26.88;;;18.92;;
19891;SDS011;10108;50.142;8.724;2022-09-13T16:58:35;25.00;;;18.58;;
19891;SDS011;10108;50.142;8.724;2022-09-13T17:01:03;24.70;;;16.92;;
19891;SDS011;10108;50.142;8.724;2022-09-13T17:03:33;27.40;;;18.23;;
19891;SDS011;10108;50.142;8.724;2022-09-13T17:06:01;26.15;;;19.73;;
19891;SDS011;10108;50.142;8.724;2022-09-13T17:08:29;24.27;;;18.70;;
19891;SDS011;10108;50.142;8.724;2022-09-13T17:10:56;26.77;;;20.63;;
19891;SDS011;10108;50.142;8.724;2022-09-13T17:13:22;27.13;;;21.08;;
19891;SDS011;10108;50.142;8.724;2022-09-13T17:15:49;30.00;;;21.83;;
19891;SDS011;10108;50.142;8.724;2022-09-13T17:18:15;30.30;;;21.95;;
19891;SDS011;10108;50.142;8.724;2022-09-13T17:20:46;32.38;;;22.92;;
19891;SDS011;10108;50.142;8.724;2022-09-13T17:23:13;30.60;;;21.77;;
19891;SDS011;10108;50.142;8.724;2022-09-13T17:25:40;32.60;;;23.92;;
19891;SDS011;10108;50.142;8.724;2022-09-13T17:28:11;35.55;;;24.85;;
19891;SDS011;10108;50.142;8.724;2022-09-13T17:30:37;35.15;;;23.58;;
19891;SDS011;10108;50.142;8.724;2022-09-13T17:33:04;31.77;;;22.48;;
19891;SDS011;10108;50.142;8.724;2022-09-13T17:35:30;48.10;;;27.95;;
19891;SDS011;10108;50.142;8.724;2022-09-13T17:37:57;32.05;;;21.90;;
19891;SDS011;10108;50.142;8.724;2022-09-13T17:40:25;30.15;;;21.92;;
19891;SDS011;10108;50.142;8.724;2022-09-13T17:42:51;27.73;;;22.52;;
19891;SDS011;10108;50.142;8.724;2022-09-13T17:45:17;87.72;;;36.83;;
19891;SDS011;10108;50.142;8.724;2022-09-13T17:47:43;84.68;;;37.42;;
19891;SDS011;10108;50.142;8.724;2022-09-13T17:50:10;35.88;;;24.00;;
19891;SDS011;10108;50.142;8.724;2022-09-13T17:52:37;28.48;;;22.42;;